createdAt,value
2022-09-17T00:01:25.074Z,100294.69
2022-09-17T00:03:57.418Z,100294.81
2022-09-17T00:06:26.066Z,100306.59
2022-09-17T00:08:54.440Z,100312.84
2022-09-17T00:11:27.855Z,100313.00
2022-09-17T00:13:56.178Z,100309.56
2022-09-17T00:16:33.938Z,100316.66
2022-09-17T00:19:02.202Z,100317.06
2022-09-17T00:21:30.002Z,100312.53
2022-09-17T00:24:01.580Z,100315.22
2022-09-17T00:26:29.863Z,100307.03
2022-09-17T00:28:58.152Z,100314.97
2022-09-17T00:31:26.616Z,100311.38
2022-09-17T00:33:54.453Z,100311.13
2022-09-17T00:36:22.200Z,100307.72
2022-09-17T00:38:54.945Z,100305.16
2022-09-17T00:41:24.176Z,100322.47
2022-09-17T00:43:56.534Z,100319.88
2022-09-17T00:46:29.412Z,100326.41
2022-09-17T00:49:00.193Z,100316.16
2022-09-17T00:52:02.166Z,100317.28
2022-09-17T00:54:29.237Z,100324.66
2022-09-17T00:56:57.750Z,100318.81
2022-09-17T00:59:26.375Z,100316.81
2022-09-17T01:01:53.380Z,100320.63
2022-09-17T01:04:27.684Z,100315.97
2022-09-17T01:07:17.050Z,100320.38
2022-09-17T01:09:59.835Z,100315.25
2022-09-17T01:12:49.499Z,100318.53
2022-09-17T01:15:33.212Z,100324.78
2022-09-17T01:18:43.426Z,100319.78
2022-09-17T01:21:40.684Z,100331.41
2022-09-17T01:24:32.721Z,100326.31
2022-09-17T01:27:35.127Z,100335.50
2022-09-17T01:30:26.792Z,100335.63
2022-09-17T01:33:06.681Z,100334.78
2022-09-17T01:35:48.525Z,100334.22
2022-09-17T01:38:39.162Z,100339.84
2022-09-17T01:41:45.564Z,100336.19
2022-09-17T01:44:36.884Z,100344.13
2022-09-17T01:47:20.763Z,100329.91
2022-09-17T01:49:51.889Z,100338.72
2022-09-17T01:52:19.924Z,100341.28
2022-09-17T01:54:51.610Z,100343.00
2022-09-17T01:57:29.465Z,100344.69
2022-09-17T02:00:12.871Z,100341.75
2022-09-17T02:03:00.454Z,100354.94
2022-09-17T02:05:34.915Z,100346.16
2022-09-17T02:08:16.311Z,100344.16
2022-09-17T02:10:49.986Z,100345.28
2022-09-17T02:13:23.310Z,100348.97
2022-09-17T02:15:57.802Z,100355.22
2022-09-17T02:18:49.978Z,100350.09
2022-09-17T02:21:34.466Z,100353.53
2022-09-17T02:24:17.892Z,100352.69
2022-09-17T02:27:02.057Z,100350.47
2022-09-17T02:29:39.767Z,100358.47
2022-09-17T02:32:07.339Z,100348.78
2022-09-17T02:34:35.340Z,100359.84
2022-09-17T02:37:03.288Z,100348.56
2022-09-17T02:39:30.215Z,100349.69
2022-09-17T02:42:20.654Z,100358.28
2022-09-17T02:45:09.142Z,100355.97
2022-09-17T02:48:15.768Z,100371.28
2022-09-17T02:50:58.984Z,100367.88
2022-09-17T02:54:14.644Z,100365.41
2022-09-17T02:57:11.898Z,100355.91
2022-09-17T03:00:04.984Z,100357.72
2022-09-17T03:03:07.117Z,100356.00
2022-09-17T03:05:37.002Z,100364.38
2022-09-17T03:08:04.378Z,100371.47
2022-09-17T03:10:33.562Z,100365.59
2022-09-17T03:13:00.699Z,100372.69
2022-09-17T03:15:28.350Z,100360.34
2022-09-17T03:17:55.297Z,100364.53
2022-09-17T03:20:22.339Z,100366.50
2022-09-17T03:22:49.337Z,100371.28
2022-09-17T03:25:16.314Z,100361.03
2022-09-17T03:27:43.216Z,100371.66
2022-09-17T03:30:10.292Z,100369.97
2022-09-17T03:32:37.196Z,100369.34
2022-09-17T03:35:04.567Z,100360.53
2022-09-17T03:37:33.124Z,100371.31
2022-09-17T03:40:00.466Z,100359.09
2022-09-17T03:42:27.508Z,100369.34
2022-09-17T03:44:54.408Z,100371.59
2022-09-17T03:47:21.350Z,100369.75
2022-09-17T03:49:48.295Z,100360.91
2022-09-17T03:52:15.160Z,100381.63
2022-09-17T03:54:42.033Z,100365.59
2022-09-17T03:57:08.930Z,100381.16
2022-09-17T03:59:35.880Z,100379.31
2022-09-17T04:02:03.016Z,100381.16
2022-09-17T04:04:30.109Z,100383.94
2022-09-17T04:06:57.031Z,100383.72
2022-09-17T04:09:23.943Z,100384.31
2022-09-17T04:11:51.830Z,100384.44
2022-09-17T04:14:18.699Z,100389.84
2022-09-17T04:16:45.585Z,100395.44
2022-09-17T04:19:12.547Z,100396.44
2022-09-17T04:21:39.416Z,100396.44
2022-09-17T04:24:06.456Z,100399.50
2022-09-17T04:26:33.380Z,100405.84
2022-09-17T04:29:01.050Z,100406.22
2022-09-17T04:31:28.207Z,100407.09
2022-09-17T04:33:55.468Z,100400.97
2022-09-17T04:36:22.366Z,100415.56
2022-09-17T04:38:49.405Z,100412.25
2022-09-17T04:41:16.460Z,100413.22
2022-09-17T04:43:43.464Z,100402.69
2022-09-17T04:46:10.554Z,100404.91
2022-09-17T04:48:37.803Z,100409.19
2022-09-17T04:51:05.041Z,100401.38
2022-09-17T04:53:32.054Z,100411.41
2022-09-17T04:55:58.954Z,100409.69
2022-09-17T04:58:25.845Z,100415.56
2022-09-17T05:00:52.783Z,100419.09
2022-09-17T05:03:19.699Z,100423.88
2022-09-17T05:05:46.567Z,100415.06
2022-09-17T05:08:13.440Z,100414.56
2022-09-17T05:10:40.347Z,100407.63
2022-09-17T05:13:07.239Z,100409.34
2022-09-17T05:15:34.155Z,100415.06
2022-09-17T05:18:01.542Z,100415.22
2022-09-17T05:20:28.532Z,100419.94
2022-09-17T05:22:55.759Z,100421.78
2022-09-17T05:25:25.821Z,100432.66
2022-09-17T05:27:53.931Z,100421.78
2022-09-17T05:30:21.207Z,100434.88
2022-09-17T05:32:48.686Z,100432.19
2022-09-17T05:35:15.951Z,100432.94
2022-09-17T05:37:42.844Z,100436.31
2022-09-17T05:40:10.351Z,100435.72
2022-09-17T05:42:37.454Z,100439.16
2022-09-17T05:45:05.513Z,100428.66
2022-09-17T05:47:32.529Z,100445.13
2022-09-17T05:49:59.514Z,100438.28
2022-09-17T05:52:29.737Z,100440.63
2022-09-17T05:54:56.842Z,100444.28
2022-09-17T05:57:24.333Z,100444.78
2022-09-17T05:59:51.216Z,100444.88
2022-09-17T06:02:18.260Z,100441.97
2022-09-17T06:04:45.978Z,100446.75
2022-09-17T06:07:12.902Z,100458.47
2022-09-17T06:09:41.041Z,100456.88
2022-09-17T06:12:08.615Z,100466.78
2022-09-17T06:14:35.626Z,100457.13
2022-09-17T06:17:02.578Z,100465.44
2022-09-17T06:19:29.478Z,100460.28
2022-09-17T06:21:56.370Z,100473.38
2022-09-17T06:24:23.584Z,100465.03
2022-09-17T06:26:52.168Z,100465.63
2022-09-17T06:29:19.591Z,100469.81
2022-09-17T06:31:48.786Z,100466.03
2022-09-17T06:34:16.578Z,100473.97
2022-09-17T06:36:43.677Z,100479.00
2022-09-17T06:39:11.731Z,100476.06
2022-09-17T06:41:39.053Z,100476.66
2022-09-17T06:44:05.972Z,100475.41
2022-09-17T06:46:32.958Z,100476.00
2022-09-17T06:48:59.920Z,100470.59
2022-09-17T06:51:26.824Z,100474.53
2022-09-17T06:53:53.729Z,100469.06
2022-09-17T06:56:20.611Z,100466.88
2022-09-17T06:58:47.507Z,100465.06
2022-09-17T07:01:14.905Z,100461.59
2022-09-17T07:03:43.486Z,100468.91
2022-09-17T07:06:11.258Z,100473.19
2022-09-17T07:08:39.533Z,100473.53
2022-09-17T07:11:07.973Z,100471.03
2022-09-17T07:13:35.075Z,100476.63
2022-09-17T07:16:05.120Z,100470.56
2022-09-17T07:18:32.827Z,100462.34
2022-09-17T07:21:05.860Z,100467.59
2022-09-17T07:23:37.587Z,100467.47
2022-09-17T07:26:13.263Z,100469.06
2022-09-17T07:28:40.692Z,100472.66
2022-09-17T07:31:12.462Z,100461.78
2022-09-17T07:33:42.570Z,100477.22
2022-09-17T07:36:12.936Z,100478.00
2022-09-17T07:38:39.911Z,100469.38
2022-09-17T07:41:12.970Z,100474.22
2022-09-17T07:43:41.579Z,100471.81
2022-09-17T07:46:17.699Z,100472.13
2022-09-17T07:48:46.420Z,100476.34
2022-09-17T07:51:22.052Z,100467.25
2022-09-17T07:53:52.751Z,100457.19
2022-09-17T07:56:19.757Z,100458.81
2022-09-17T07:58:46.654Z,100463.94
2022-09-17T08:01:18.180Z,100465.50
2022-09-17T08:03:50.714Z,100470.94
2022-09-17T08:06:25.740Z,100468.50
2022-09-17T08:08:52.801Z,100471.38
2022-09-17T08:11:38.590Z,100480.50
2022-09-17T08:14:15.428Z,100472.22
2022-09-17T08:16:42.554Z,100463.13
2022-09-17T08:19:10.821Z,100460.56
2022-09-17T08:21:37.928Z,100477.50
2022-09-17T08:24:05.080Z,100462.13
2022-09-17T08:26:32.635Z,100465.94
2022-09-17T08:29:00.131Z,100466.41
2022-09-17T08:31:29.925Z,100464.66
2022-09-17T08:33:56.966Z,100469.59
2022-09-17T08:36:26.109Z,100460.03
2022-09-17T08:38:54.934Z,100466.28
2022-09-17T08:41:39.919Z,100464.97
2022-09-17T08:44:33.266Z,100461.56
2022-09-17T08:47:13.513Z,100462.63
2022-09-17T08:49:45.039Z,100460.97
2022-09-17T08:52:23.900Z,100462.97
2022-09-17T08:55:03.333Z,100455.38
2022-09-17T08:57:52.894Z,100454.78
2022-09-17T09:00:22.604Z,100469.50
2022-09-17T09:03:17.097Z,100463.56
2022-09-17T09:05:52.400Z,100456.22
2022-09-17T09:08:35.413Z,100458.41
2022-09-17T09:11:08.636Z,100447.69
2022-09-17T09:13:42.507Z,100454.13
2022-09-17T09:16:27.084Z,100451.53
2022-09-17T09:19:13.335Z,100446.06
2022-09-17T09:22:07.092Z,100459.22
2022-09-17T09:24:45.641Z,100445.84
2022-09-17T09:27:17.961Z,100457.59
2022-09-17T09:30:11.672Z,100448.00
2022-09-17T09:32:41.171Z,100451.09
2022-09-17T09:35:24.836Z,100456.75
2022-09-17T09:38:04.370Z,100448.13
2022-09-17T09:40:54.338Z,100449.50
2022-09-17T09:44:03.113Z,100449.50
2022-09-17T09:46:34.651Z,100434.13
2022-09-17T09:49:39.674Z,100437.41
2022-09-17T09:52:46.564Z,100447.25
2022-09-17T09:55:40.951Z,100432.84
2022-09-17T09:58:32.616Z,100428.72
2022-09-17T10:00:59.966Z,100436.81
2022-09-17T10:03:33.045Z,100440.50
2022-09-17T10:06:09.838Z,100446.00
2022-09-17T10:08:40.735Z,100445.31
2022-09-17T10:11:34.951Z,100429.44
2022-09-17T10:14:26.550Z,100445.03
2022-09-17T10:17:21.595Z,100443.25
2022-09-17T10:20:08.799Z,100448.28
2022-09-17T10:22:38.827Z,100449.97
2022-09-17T10:25:22.434Z,100447.53
2022-09-17T10:27:50.156Z,100444.31
2022-09-17T10:30:19.011Z,100451.38
2022-09-17T10:33:28.468Z,100457.41
2022-09-17T10:36:01.474Z,100458.78
2022-09-17T10:38:46.198Z,100460.00
2022-09-17T10:41:17.907Z,100449.69
2022-09-17T10:43:45.822Z,100428.22
2022-09-17T10:46:18.544Z,100447.28
2022-09-17T10:48:57.138Z,100441.09
2022-09-17T10:51:26.208Z,100436.34
2022-09-17T10:54:09.010Z,100432.94
2022-09-17T10:56:37.918Z,100431.38
2022-09-17T10:59:26.108Z,100429.91
2022-09-17T11:02:12.136Z,100407.53
2022-09-17T11:04:48.953Z,100422.53
2022-09-17T11:07:44.593Z,100419.00
2022-09-17T11:10:28.549Z,100421.25
2022-09-17T11:13:28.900Z,100407.00
2022-09-17T11:16:40.348Z,100412.38
2022-09-17T11:19:20.463Z,100417.34
2022-09-17T11:22:26.934Z,100402.56
2022-09-17T11:25:24.407Z,100401.97
2022-09-17T11:28:01.240Z,100398.72
2022-09-17T11:30:40.263Z,100404.97
2022-09-17T11:33:39.521Z,100408.47
2022-09-17T11:36:18.111Z,100400.56
2022-09-17T11:38:51.294Z,100404.13
2022-09-17T11:41:22.339Z,100436.03
2022-09-17T11:44:17.310Z,100427.03
2022-09-17T11:46:51.443Z,100420.59
2022-09-17T11:49:24.779Z,100429.38
2022-09-17T11:52:08.698Z,100422.28
2022-09-17T11:54:57.869Z,100428.66
2022-09-17T11:57:38.901Z,100424.16
2022-09-17T12:00:22.556Z,100423.13
2022-09-17T12:03:34.894Z,100413.19
2022-09-17T12:06:10.192Z,100398.22
2022-09-17T12:09:22.397Z,100394.25
2022-09-17T12:12:45.079Z,100407.19
2022-09-17T12:15:22.218Z,100395.41
2022-09-17T12:18:41.863Z,100375.78
2022-09-17T12:21:14.347Z,100390.78
2022-09-17T12:24:16.962Z,100386.28
2022-09-17T12:27:11.943Z,100394.19
2022-09-17T12:30:09.187Z,100392.16
2022-09-17T12:32:48.678Z,100376.94
2022-09-17T12:36:03.054Z,100365.91
2022-09-17T12:39:08.516Z,100357.13
2022-09-17T12:42:12.782Z,100353.13
2022-09-17T12:44:52.866Z,100351.25
2022-09-17T12:47:51.157Z,100335.97
2022-09-17T12:50:46.370Z,100340.81
2022-09-17T12:53:45.368Z,100340.81
2022-09-17T12:56:38.788Z,100337.06
2022-09-17T12:59:19.097Z,100330.41
2022-09-17T13:01:57.623Z,100338.19
2022-09-17T13:05:00.539Z,100337.22
2022-09-17T13:07:51.298Z,100346.75
2022-09-17T13:10:55.826Z,100359.00
2022-09-17T13:13:53.571Z,100366.31
2022-09-17T13:16:58.359Z,100370.53
2022-09-17T13:19:59.627Z,100392.50
2022-09-17T13:22:48.990Z,100418.34
2022-09-17T13:25:19.540Z,100406.22
2022-09-17T13:27:48.251Z,100402.13
2022-09-17T13:30:18.277Z,100418.59
2022-09-17T13:32:50.511Z,100402.69
2022-09-17T13:35:17.337Z,100409.09
2022-09-17T13:37:58.949Z,100400.75
2022-09-17T13:40:37.296Z,100397.94
2022-09-17T13:43:04.363Z,100390.38
2022-09-17T13:45:33.719Z,100377.59
2022-09-17T13:48:10.983Z,100384.25
2022-09-17T13:50:44.203Z,100382.69
2022-09-17T13:53:16.580Z,100374.69
2022-09-17T13:55:55.738Z,100368.44
2022-09-17T13:58:34.798Z,100361.81
2022-09-17T14:01:12.232Z,100358.22
2022-09-17T14:03:44.243Z,100362.72
2022-09-17T14:06:11.260Z,100370.19
2022-09-17T14:08:44.070Z,100359.75
2022-09-17T14:11:23.060Z,100356.25
2022-09-17T14:13:52.828Z,100351.19
2022-09-17T14:16:38.503Z,100345.22
2022-09-17T14:19:51.022Z,100348.16
2022-09-17T14:22:26.212Z,100346.25
2022-09-17T14:24:54.948Z,100338.03
2022-09-17T14:28:22.927Z,100347.59
2022-09-17T14:30:51.008Z,100343.41
2022-09-17T14:33:26.252Z,100337.41
2022-09-17T14:36:01.938Z,100346.81
2022-09-17T14:38:50.865Z,100343.03
2022-09-17T14:41:24.803Z,100338.16
2022-09-17T14:44:01.475Z,100346.69
2022-09-17T14:46:54.417Z,100338.72
2022-09-17T14:49:27.615Z,100348.38
2022-09-17T14:51:57.030Z,100349.22
2022-09-17T14:54:32.463Z,100361.13
2022-09-17T14:57:08.669Z,100340.81
2022-09-17T14:59:51.504Z,100358.91
2022-09-17T15:02:30.222Z,100376.19
2022-09-17T15:04:57.516Z,100377.53
2022-09-17T15:07:26.497Z,100398.22
2022-09-17T15:09:55.378Z,100392.25
2022-09-17T15:12:29.825Z,100412.56
2022-09-17T15:14:58.108Z,100386.03
2022-09-17T15:17:25.213Z,100373.28
2022-09-17T15:19:57.072Z,100365.34
2022-09-17T15:22:29.723Z,100375.72
2022-09-17T15:25:10.321Z,100372.59
2022-09-17T15:27:45.767Z,100372.19
2022-09-17T15:30:21.389Z,100370.75
2022-09-17T15:33:01.594Z,100366.75
2022-09-17T15:35:33.617Z,100363.00
2022-09-17T15:38:24.531Z,100365.38
2022-09-17T15:40:52.368Z,100370.41
2022-09-17T15:43:28.363Z,100369.19
2022-09-17T15:45:58.385Z,100359.53
2022-09-17T15:48:28.189Z,100361.78
2022-09-17T15:50:57.072Z,100362.88
2022-09-17T15:53:27.420Z,100354.72
2022-09-17T15:56:06.456Z,100364.28
2022-09-17T15:59:00.334Z,100355.78
2022-09-17T16:01:31.034Z,100362.34
2022-09-17T16:04:19.682Z,100369.47
2022-09-17T16:07:11.773Z,100378.16
2022-09-17T16:09:49.974Z,100380.78
2022-09-17T16:12:28.942Z,100378.06
2022-09-17T16:14:58.628Z,100394.88
2022-09-17T16:17:47.398Z,100393.03
2022-09-17T16:20:25.166Z,100400.38
2022-09-17T16:22:53.169Z,100387.59
2022-09-17T16:25:25.182Z,100390.38
2022-09-17T16:28:01.863Z,100382.78
2022-09-17T16:30:28.849Z,100391.88
2022-09-17T16:32:55.800Z,100394.97
2022-09-17T16:35:26.240Z,100390.94
2022-09-17T16:37:55.709Z,100398.38
2022-09-17T16:40:27.892Z,100402.44
2022-09-17T16:42:55.485Z,100386.97
2022-09-17T16:45:25.468Z,100411.88
2022-09-17T16:47:55.119Z,100400.41
2022-09-17T16:50:22.395Z,100405.38
2022-09-17T16:52:49.371Z,100416.38
2022-09-17T16:55:17.957Z,100431.38
2022-09-17T16:57:45.446Z,100426.22
2022-09-17T17:00:17.113Z,100425.00
2022-09-17T17:02:48.321Z,100431.53
2022-09-17T17:05:16.026Z,100428.59
2022-09-17T17:07:42.984Z,100431.59
2022-09-17T17:10:10.279Z,100427.16
2022-09-17T17:12:38.325Z,100429.91
2022-09-17T17:15:06.971Z,100441.31
2022-09-17T17:17:35.834Z,100446.75
2022-09-17T17:20:09.664Z,100449.59
2022-09-17T17:22:37.799Z,100448.72
2022-09-17T17:25:06.805Z,100452.72
2022-09-17T17:27:34.642Z,100459.97
2022-09-17T17:30:04.453Z,100454.44
2022-09-17T17:32:31.552Z,100463.28
2022-09-17T17:34:58.449Z,100463.41
2022-09-17T17:37:26.017Z,100466.69
2022-09-17T17:39:54.061Z,100468.09
2022-09-17T17:42:21.829Z,100470.94
2022-09-17T17:44:48.740Z,100468.09
2022-09-17T17:47:15.650Z,100464.97
2022-09-17T17:49:44.460Z,100468.66
2022-09-17T17:52:11.654Z,100479.03
2022-09-17T17:54:38.696Z,100480.31
2022-09-17T17:57:05.672Z,100482.56
2022-09-17T17:59:32.920Z,100498.38
2022-09-17T18:01:59.951Z,100497.22
2022-09-17T18:04:26.912Z,100502.19
2022-09-17T18:06:53.913Z,100502.72
2022-09-17T18:09:20.779Z,100508.69
2022-09-17T18:11:47.694Z,100505.09
2022-09-17T18:14:14.686Z,100498.25
2022-09-17T18:16:41.644Z,100503.34
2022-09-17T18:19:11.345Z,100515.84
2022-09-17T18:21:38.569Z,100518.97
2022-09-17T18:24:05.565Z,100511.06
2022-09-17T18:26:32.781Z,100507.19
2022-09-17T18:29:03.213Z,100525.09
2022-09-17T18:31:34.584Z,100529.31
2022-09-17T18:34:09.712Z,100523.75
2022-09-17T18:36:39.422Z,100533.13
2022-09-17T18:39:52.915Z,100533.41
2022-09-17T18:41:57.094Z,100545.44
2022-09-17T18:44:25.116Z,100543.03
2022-09-17T18:46:52.070Z,100541.63
2022-09-17T18:49:19.265Z,100559.44
2022-09-17T18:51:46.448Z,100547.09
2022-09-17T18:54:13.647Z,100564.41
2022-09-17T18:56:41.991Z,100569.59
2022-09-17T18:59:10.210Z,100570.69
2022-09-17T19:01:37.396Z,100566.22
2022-09-17T19:04:04.945Z,100569.28
2022-09-17T19:06:32.465Z,100572.50
2022-09-17T19:09:04.596Z,100566.38
2022-09-17T19:11:31.582Z,100568.84
2022-09-17T19:13:58.553Z,100577.81
2022-09-17T19:16:25.698Z,100582.59
2022-09-17T19:18:52.671Z,100583.84
2022-09-17T19:21:21.748Z,100588.47
2022-09-17T19:23:51.157Z,100587.03
2022-09-17T19:26:22.809Z,100587.03
2022-09-17T19:29:00.447Z,100587.19
2022-09-17T19:31:28.333Z,100585.69
2022-09-17T19:33:56.279Z,100589.22
2022-09-17T19:36:23.454Z,100586.22
2022-09-17T19:38:50.440Z,100595.13
2022-09-17T19:41:20.061Z,100597.97
2022-09-17T19:43:47.109Z,100588.66
2022-09-17T19:46:17.927Z,100599.19
2022-09-17T19:48:56.155Z,100608.38
2022-09-17T19:51:25.962Z,100603.22
2022-09-17T19:53:53.767Z,100599.19
2022-09-17T19:56:23.863Z,100604.69
2022-09-17T19:58:51.139Z,100601.38
2022-09-17T20:01:18.768Z,100612.03
2022-09-17T20:03:46.877Z,100613.13
2022-09-17T20:06:17.458Z,100612.28
2022-09-17T20:08:50.637Z,100606.28
2022-09-17T20:11:20.421Z,100608.25
2022-09-17T20:13:47.721Z,100606.41
2022-09-17T20:16:21.032Z,100611.81
2022-09-17T20:18:49.145Z,100608.25
2022-09-17T20:21:22.987Z,100608.38
2022-09-17T20:23:50.121Z,100606.88
2022-09-17T20:26:18.159Z,100615.09
2022-09-17T20:28:45.485Z,100605.81
2022-09-17T20:31:27.642Z,100599.56
2022-09-17T20:33:57.384Z,100602.28
2022-09-17T20:36:28.078Z,100594.41
2022-09-17T20:39:11.417Z,100600.56
2022-09-17T20:41:39.875Z,100608.50
2022-09-17T20:44:07.307Z,100611.31
2022-09-17T20:46:34.804Z,100596.88
2022-09-17T20:49:01.806Z,100599.44
2022-09-17T20:51:30.609Z,100598.56
2022-09-17T20:53:57.960Z,100600.28
2022-09-17T20:56:33.003Z,100604.69
2022-09-17T20:59:18.507Z,100609.84
2022-09-17T21:01:49.761Z,100602.13
2022-09-17T21:04:21.087Z,100606.66
2022-09-17T21:06:53.452Z,100603.94
2022-09-17T21:09:20.674Z,100602.00
2022-09-17T21:11:49.071Z,100602.00
2022-09-17T21:14:18.020Z,100605.66
2022-09-17T21:16:45.916Z,100598.56
2022-09-17T21:19:15.975Z,100603.09
2022-09-17T21:21:42.984Z,100613.28
2022-09-17T21:24:10.301Z,100609.84
2022-09-17T21:26:37.721Z,100610.94
2022-09-17T21:29:04.721Z,100612.88
2022-09-17T21:31:34.633Z,100617.78
2022-09-17T21:34:06.326Z,100617.06
2022-09-17T21:36:36.285Z,100617.19
2022-09-17T21:39:11.640Z,100623.53
2022-09-17T21:41:42.355Z,100625.97
2022-09-17T21:44:13.559Z,100622.66
2022-09-17T21:46:42.258Z,100623.66
2022-09-17T21:49:09.356Z,100622.94
2022-09-17T21:51:40.163Z,100626.81
2022-09-17T21:54:13.559Z,100624.75
2022-09-17T21:56:40.665Z,100631.09
2022-09-17T21:59:11.365Z,100635.16
2022-09-17T22:01:47.998Z,100635.16
2022-09-17T22:04:18.196Z,100631.38
2022-09-17T22:06:46.782Z,100645.19
2022-09-17T22:09:26.524Z,100642.63
2022-09-17T22:11:53.698Z,100636.22
2022-09-17T22:14:24.173Z,100623.88
2022-09-17T22:16:54.817Z,100635.50
2022-09-17T22:19:24.040Z,100629.25
2022-09-17T22:21:55.365Z,100638.44
2022-09-17T22:24:23.122Z,100637.69
2022-09-17T22:26:56.926Z,100631.47
2022-09-17T22:29:26.456Z,100632.56
2022-09-17T22:31:53.527Z,100635.97
2022-09-17T22:34:22.574Z,100642.09
2022-09-17T22:36:50.075Z,100638.16
2022-09-17T22:39:19.040Z,100639.88
2022-09-17T22:41:46.165Z,100644.16
2022-09-17T22:44:17.693Z,100648.72
2022-09-17T22:46:47.388Z,100641.00
2022-09-17T22:49:15.270Z,100638.16
2022-09-17T22:51:42.967Z,100638.03
2022-09-17T22:54:12.834Z,100634.72
2022-09-17T22:56:40.599Z,100639.88
2022-09-17T22:59:07.643Z,100641.84
2022-09-17T23:01:38.740Z,100647.00
2022-09-17T23:04:06.096Z,100639.88
2022-09-17T23:06:36.449Z,100639.00
2022-09-17T23:09:04.211Z,100636.44
2022-09-17T23:11:38.103Z,100641.22
2022-09-17T23:14:12.070Z,100638.88
2022-09-17T23:16:45.499Z,100638.47
2022-09-17T23:19:13.177Z,100634.09
2022-09-17T23:21:40.126Z,100644.97
2022-09-17T23:24:08.516Z,100634.19
2022-09-17T23:26:35.695Z,100641.44
2022-09-17T23:29:05.364Z,100638.97
2022-09-17T23:31:35.205Z,100632.84
2022-09-17T23:34:03.790Z,100634.06
2022-09-17T23:36:34.954Z,100646.53
2022-09-17T23:39:03.307Z,100637.59
2022-09-17T23:41:40.506Z,100635.88
2022-09-17T23:44:14.483Z,100641.25
2022-09-17T23:46:44.424Z,100636.13
2022-09-17T23:49:12.888Z,100641.25
2022-09-17T23:51:39.837Z,100630.75
2022-09-17T23:54:07.508Z,100641.25
2022-09-17T23:56:35.461Z,100642.13
2022-09-17T23:59:03.214Z,100642.47
